sensor_id;sensor_type;location;lat;lon;timestamp;temperature;humidity
7360;DHT22;3720;48.274;7.796;2023-09-30T00:00:15;16.40;99.90
7360;DHT22;3720;48.274;7.796;2023-09-30T00:02:47;16.50;99.90
7360;DHT22;3720;48.274;7.796;2023-09-30T00:05:21;16.60;99.90
7360;DHT22;3720;48.274;7.796;2023-09-30T00:07:52;16.60;99.90
7360;DHT22;3720;48.274;7.796;2023-09-30T00:10:24;16.50;99.90
7360;DHT22;3720;48.274;7.796;2023-09-30T00:12:56;16.70;99.90
7360;DHT22;3720;48.274;7.796;2023-09-30T00:15:29;16.60;99.90
7360;DHT22;3720;48.274;7.796;2023-09-30T00:18:01;16.60;99.90
7360;DHT22;3720;48.274;7.796;2023-09-30T00:20:34;16.60;99.90
7360;DHT22;3720;48.274;7.796;2023-09-30T00:23:06;16.70;99.90
7360;DHT22;3720;48.274;7.796;2023-09-30T00:25:38;16.70;99.90
7360;DHT22;3720;48.274;7.796;2023-09-30T00:28:10;16.70;99.90
7360;DHT22;3720;48.274;7.796;2023-09-30T00:30:42;16.60;99.90
7360;DHT22;3720;48.274;7.796;2023-09-30T00:33:17;16.60;99.90
7360;DHT22;3720;48.274;7.796;2023-09-30T00:35:51;16.60;99.90
7360;DHT22;3720;48.274;7.796;2023-09-30T00:38:23;16.60;99.90
7360;DHT22;3720;48.274;7.796;2023-09-30T00:40:55;16.60;99.90
7360;DHT22;3720;48.274;7.796;2023-09-30T00:43:27;16.50;99.90
7360;DHT22;3720;48.274;7.796;2023-09-30T00:46:02;16.50;99.90
7360;DHT22;3720;48.274;7.796;2023-09-30T00:48:37;16.50;99.90
7360;DHT22;3720;48.274;7.796;2023-09-30T00:51:11;16.60;99.90
7360;DHT22;3720;48.274;7.796;2023-09-30T00:53:43;16.60;99.90
7360;DHT22;3720;48.274;7.796;2023-09-30T00:56:15;16.50;99.90
7360;DHT22;3720;48.274;7.796;2023-09-30T00:58:48;16.60;99.90
7360;DHT22;3720;48.274;7.796;2023-09-30T01:01:22;16.60;99.90
7360;DHT22;3720;48.274;7.796;2023-09-30T01:03:54;16.60;99.90
7360;DHT22;3720;48.274;7.796;2023-09-30T01:06:27;16.60;99.90
7360;DHT22;3720;48.274;7.796;2023-09-30T01:08:59;16.60;99.90
7360;DHT22;3720;48.274;7.796;2023-09-30T01:11:31;16.60;99.90
7360;DHT22;3720;48.274;7.796;2023-09-30T01:14:03;16.60;99.90
7360;DHT22;3720;48.274;7.796;2023-09-30T01:16:35;16.60;99.90
7360;DHT22;3720;48.274;7.796;2023-09-30T01:19:06;16.60;99.90
7360;DHT22;3720;48.274;7.796;2023-09-30T01:21:42;16.60;99.90
7360;DHT22;3720;48.274;7.796;2023-09-30T01:24:18;16.50;99.90
7360;DHT22;3720;48.274;7.796;2023-09-30T01:26:50;16.50;99.90
7360;DHT22;3720;48.274;7.796;2023-09-30T01:29:22;16.50;99.90
7360;DHT22;3720;48.274;7.796;2023-09-30T01:31:56;16.40;99.90
7360;DHT22;3720;48.274;7.796;2023-09-30T01:34:28;16.30;99.90
7360;DHT22;3720;48.274;7.796;2023-09-30T01:37:01;16.20;99.90
7360;DHT22;3720;48.274;7.796;2023-09-30T01:39:33;16.20;99.90
7360;DHT22;3720;48.274;7.796;2023-09-30T01:42:05;16.20;99.90
7360;DHT22;3720;48.274;7.796;2023-09-30T01:44:37;16.10;99.90
7360;DHT22;3720;48.274;7.796;2023-09-30T01:47:08;16.00;99.90
7360;DHT22;3720;48.274;7.796;2023-09-30T01:49:41;15.90;99.90
7360;DHT22;3720;48.274;7.796;2023-09-30T01:52:15;15.90;99.90
7360;DHT22;3720;48.274;7.796;2023-09-30T01:54:46;15.90;99.90
7360;DHT22;3720;48.274;7.796;2023-09-30T01:57:18;16.00;99.90
7360;DHT22;3720;48.274;7.796;2023-09-30T01:59:50;15.90;99.90
7360;DHT22;3720;48.274;7.796;2023-09-30T02:02:22;15.90;99.90
7360;DHT22;3720;48.274;7.796;2023-09-30T02:04:54;15.90;99.90
7360;DHT22;3720;48.274;7.796;2023-09-30T02:07:27;15.90;99.90
7360;DHT22;3720;48.274;7.796;2023-09-30T02:09:59;15.90;99.90
7360;DHT22;3720;48.274;7.796;2023-09-30T02:12:31;15.90;99.90
7360;DHT22;3720;48.274;7.796;2023-09-30T02:15:04;15.90;99.90
7360;DHT22;3720;48.274;7.796;2023-09-30T02:17:37;15.90;99.90
7360;DHT22;3720;48.274;7.796;2023-09-30T02:20:09;15.90;99.90
7360;DHT22;3720;48.274;7.796;2023-09-30T02:22:47;15.90;99.90
7360;DHT22;3720;48.274;7.796;2023-09-30T02:25:19;15.90;99.90
7360;DHT22;3720;48.274;7.796;2023-09-30T02:27:51;15.90;99.90
7360;DHT22;3720;48.274;7.796;2023-09-30T02:30:23;15.90;99.90
7360;DHT22;3720;48.274;7.796;2023-09-30T02:32:55;15.90;99.90
7360;DHT22;3720;48.274;7.796;2023-09-30T02:35:27;15.80;99.90
7360;DHT22;3720;48.274;7.796;2023-09-30T02:38:00;15.80;99.90
7360;DHT22;3720;48.274;7.796;2023-09-30T02:40:33;15.70;99.90
7360;DHT22;3720;48.274;7.796;2023-09-30T02:43:05;15.70;99.90
7360;DHT22;3720;48.274;7.796;2023-09-30T02:45:37;15.70;99.90
7360;DHT22;3720;48.274;7.796;2023-09-30T02:48:09;15.70;99.90
7360;DHT22;3720;48.274;7.796;2023-09-30T02:50:42;15.70;99.90
7360;DHT22;3720;48.274;7.796;2023-09-30T02:53:17;15.60;99.90
7360;DHT22;3720;48.274;7.796;2023-09-30T02:55:49;15.60;99.90
7360;DHT22;3720;48.274;7.796;2023-09-30T02:58:26;15.50;99.90
7360;DHT22;3720;48.274;7.796;2023-09-30T03:01:00;15.50;99.90
7360;DHT22;3720;48.274;7.796;2023-09-30T03:03:32;15.50;99.90
7360;DHT22;3720;48.274;7.796;2023-09-30T03:06:04;15.50;99.90
7360;DHT22;3720;48.274;7.796;2023-09-30T03:08:37;15.50;99.90
7360;DHT22;3720;48.274;7.796;2023-09-30T03:11:09;15.60;99.90
7360;DHT22;3720;48.274;7.796;2023-09-30T03:13:41;15.60;99.90
7360;DHT22;3720;48.274;7.796;2023-09-30T03:16:13;15.60;99.90
7360;DHT22;3720;48.274;7.796;2023-09-30T03:18:45;15.60;99.90
7360;DHT22;3720;48.274;7.796;2023-09-30T03:21:17;15.60;99.90
7360;DHT22;3720;48.274;7.796;2023-09-30T03:23:51;15.70;99.90
7360;DHT22;3720;48.274;7.796;2023-09-30T03:26:23;15.60;99.90
7360;DHT22;3720;48.274;7.796;2023-09-30T03:28:55;15.60;99.90
7360;DHT22;3720;48.274;7.796;2023-09-30T03:31:27;15.60;99.90
7360;DHT22;3720;48.274;7.796;2023-09-30T03:33:59;15.50;99.90
7360;DHT22;3720;48.274;7.796;2023-09-30T03:36:30;15.40;99.90
7360;DHT22;3720;48.274;7.796;2023-09-30T03:39:05;15.40;99.90
7360;DHT22;3720;48.274;7.796;2023-09-30T03:41:38;15.50;99.90
7360;DHT22;3720;48.274;7.796;2023-09-30T03:44:10;15.40;99.90
7360;DHT22;3720;48.274;7.796;2023-09-30T03:46:42;15.40;99.90
7360;DHT22;3720;48.274;7.796;2023-09-30T03:49:14;15.40;99.90
7360;DHT22;3720;48.274;7.796;2023-09-30T03:51:45;15.50;99.90
7360;DHT22;3720;48.274;7.796;2023-09-30T03:54:18;15.50;99.90
7360;DHT22;3720;48.274;7.796;2023-09-30T03:56:50;15.50;99.90
7360;DHT22;3720;48.274;7.796;2023-09-30T03:59:22;15.50;99.90
7360;DHT22;3720;48.274;7.796;2023-09-30T04:01:54;15.50;99.90
7360;DHT22;3720;48.274;7.796;2023-09-30T04:04:27;15.50;99.90
7360;DHT22;3720;48.274;7.796;2023-09-30T04:07:00;15.50;99.90
7360;DHT22;3720;48.274;7.796;2023-09-30T04:09:33;15.60;99.90
7360;DHT22;3720;48.274;7.796;2023-09-30T04:12:05;15.60;99.90
7360;DHT22;3720;48.274;7.796;2023-09-30T04:14:37;15.60;99.90
7360;DHT22;3720;48.274;7.796;2023-09-30T04:17:09;15.60;99.90
7360;DHT22;3720;48.274;7.796;2023-09-30T04:19:42;15.60;99.90
7360;DHT22;3720;48.274;7.796;2023-09-30T04:22:13;15.60;99.90
7360;DHT22;3720;48.274;7.796;2023-09-30T04:24:48;15.60;99.90
7360;DHT22;3720;48.274;7.796;2023-09-30T04:27:21;15.60;99.90
7360;DHT22;3720;48.274;7.796;2023-09-30T04:29:52;15.70;99.90
7360;DHT22;3720;48.274;7.796;2023-09-30T04:32:24;15.70;99.90
7360;DHT22;3720;48.274;7.796;2023-09-30T04:34:58;15.70;99.90
7360;DHT22;3720;48.274;7.796;2023-09-30T04:37:30;15.60;99.90
7360;DHT22;3720;48.274;7.796;2023-09-30T04:40:06;15.70;99.90
7360;DHT22;3720;48.274;7.796;2023-09-30T04:42:45;15.60;99.90
7360;DHT22;3720;48.274;7.796;2023-09-30T04:45:18;15.60;99.90
7360;DHT22;3720;48.274;7.796;2023-09-30T04:47:51;15.60;99.90
7360;DHT22;3720;48.274;7.796;2023-09-30T04:50:23;15.60;99.90
7360;DHT22;3720;48.274;7.796;2023-09-30T04:52:55;15.70;99.90
7360;DHT22;3720;48.274;7.796;2023-09-30T04:55:28;15.70;99.90
7360;DHT22;3720;48.274;7.796;2023-09-30T04:58:00;15.70;99.90
7360;DHT22;3720;48.274;7.796;2023-09-30T05:00:32;15.70;99.90
7360;DHT22;3720;48.274;7.796;2023-09-30T05:03:05;15.80;99.90
7360;DHT22;3720;48.274;7.796;2023-09-30T05:05:37;15.70;99.90
7360;DHT22;3720;48.274;7.796;2023-09-30T05:08:09;15.70;99.90
7360;DHT22;3720;48.274;7.796;2023-09-30T05:10:44;15.70;99.90
7360;DHT22;3720;48.274;7.796;2023-09-30T05:13:17;15.60;99.90
7360;DHT22;3720;48.274;7.796;2023-09-30T05:15:49;15.60;99.90
7360;DHT22;3720;48.274;7.796;2023-09-30T05:18:21;15.60;99.90
7360;DHT22;3720;48.274;7.796;2023-09-30T05:20:54;15.60;99.90
7360;DHT22;3720;48.274;7.796;2023-09-30T05:23:27;15.60;99.90
7360;DHT22;3720;48.274;7.796;2023-09-30T05:26:00;15.50;99.90
7360;DHT22;3720;48.274;7.796;2023-09-30T05:28:32;15.50;99.90
7360;DHT22;3720;48.274;7.796;2023-09-30T05:31:05;15.50;99.90
7360;DHT22;3720;48.274;7.796;2023-09-30T05:33:38;15.50;99.90
7360;DHT22;3720;48.274;7.796;2023-09-30T05:36:09;15.40;99.90
7360;DHT22;3720;48.274;7.796;2023-09-30T05:38:43;15.40;99.90
7360;DHT22;3720;48.274;7.796;2023-09-30T05:41:17;15.30;99.90
7360;DHT22;3720;48.274;7.796;2023-09-30T05:43:51;15.20;99.90
7360;DHT22;3720;48.274;7.796;2023-09-30T05:46:24;15.20;99.90
7360;DHT22;3720;48.274;7.796;2023-09-30T05:48:56;15.10;99.90
7360;DHT22;3720;48.274;7.796;2023-09-30T05:51:28;15.10;99.90
7360;DHT22;3720;48.274;7.796;2023-09-30T05:53:59;15.10;99.90
7360;DHT22;3720;48.274;7.796;2023-09-30T05:56:32;15.10;99.90
7360;DHT22;3720;48.274;7.796;2023-09-30T05:59:05;15.10;99.90
7360;DHT22;3720;48.274;7.796;2023-09-30T06:01:37;15.10;99.90
7360;DHT22;3720;48.274;7.796;2023-09-30T06:04:10;15.50;99.90
7360;DHT22;3720;48.274;7.796;2023-09-30T06:06:42;15.80;99.90
7360;DHT22;3720;48.274;7.796;2023-09-30T06:09:14;16.10;99.90
7360;DHT22;3720;48.274;7.796;2023-09-30T06:11:47;16.10;99.90
7360;DHT22;3720;48.274;7.796;2023-09-30T06:14:19;16.10;99.90
7360;DHT22;3720;48.274;7.796;2023-09-30T06:16:51;16.00;99.90
7360;DHT22;3720;48.274;7.796;2023-09-30T06:19:22;15.90;99.90
7360;DHT22;3720;48.274;7.796;2023-09-30T06:21:56;15.80;99.90
7360;DHT22;3720;48.274;7.796;2023-09-30T06:24:28;15.70;99.90
7360;DHT22;3720;48.274;7.796;2023-09-30T06:27:01;15.70;99.90
7360;DHT22;3720;48.274;7.796;2023-09-30T06:29:33;15.60;99.90
7360;DHT22;3720;48.274;7.796;2023-09-30T06:32:06;15.60;99.90
7360;DHT22;3720;48.274;7.796;2023-09-30T06:34:38;15.60;99.90
7360;DHT22;3720;48.274;7.796;2023-09-30T06:37:10;15.50;99.90
7360;DHT22;3720;48.274;7.796;2023-09-30T06:39:41;15.60;99.90
7360;DHT22;3720;48.274;7.796;2023-09-30T06:42:15;15.60;99.90
7360;DHT22;3720;48.274;7.796;2023-09-30T06:44:47;15.60;99.90
7360;DHT22;3720;48.274;7.796;2023-09-30T06:47:19;15.70;99.90
7360;DHT22;3720;48.274;7.796;2023-09-30T06:49:51;15.70;99.90
7360;DHT22;3720;48.274;7.796;2023-09-30T06:52:23;15.80;99.90
7360;DHT22;3720;48.274;7.796;2023-09-30T06:54:55;15.80;99.90
7360;DHT22;3720;48.274;7.796;2023-09-30T06:57:28;15.70;99.90
7360;DHT22;3720;48.274;7.796;2023-09-30T07:00:00;15.70;99.90
7360;DHT22;3720;48.274;7.796;2023-09-30T07:02:34;15.70;99.90
7360;DHT22;3720;48.274;7.796;2023-09-30T07:05:07;15.70;99.90
7360;DHT22;3720;48.274;7.796;2023-09-30T07:07:40;15.80;99.90
7360;DHT22;3720;48.274;7.796;2023-09-30T07:10:13;15.90;99.90
7360;DHT22;3720;48.274;7.796;2023-09-30T07:12:47;16.00;99.90
7360;DHT22;3720;48.274;7.796;2023-09-30T07:15:19;16.00;99.90
7360;DHT22;3720;48.274;7.796;2023-09-30T07:17:51;16.10;99.90
7360;DHT22;3720;48.274;7.796;2023-09-30T07:20:22;16.10;99.90
7360;DHT22;3720;48.274;7.796;2023-09-30T07:22:54;16.10;99.90
7360;DHT22;3720;48.274;7.796;2023-09-30T07:25:26;16.30;99.90
7360;DHT22;3720;48.274;7.796;2023-09-30T07:28:00;16.40;99.90
7360;DHT22;3720;48.274;7.796;2023-09-30T07:30:32;16.50;99.90
7360;DHT22;3720;48.274;7.796;2023-09-30T07:33:04;16.50;99.90
7360;DHT22;3720;48.274;7.796;2023-09-30T07:35:37;16.60;99.90
7360;DHT22;3720;48.274;7.796;2023-09-30T07:38:10;16.70;99.90
7360;DHT22;3720;48.274;7.796;2023-09-30T07:40:41;16.90;99.90
7360;DHT22;3720;48.274;7.796;2023-09-30T07:43:15;16.90;99.90
7360;DHT22;3720;48.274;7.796;2023-09-30T07:45:48;17.10;99.90
7360;DHT22;3720;48.274;7.796;2023-09-30T07:48:20;17.20;99.90
7360;DHT22;3720;48.274;7.796;2023-09-30T07:50:51;17.30;99.90
7360;DHT22;3720;48.274;7.796;2023-09-30T07:53:23;17.40;99.90
7360;DHT22;3720;48.274;7.796;2023-09-30T07:55:55;17.40;99.90
7360;DHT22;3720;48.274;7.796;2023-09-30T07:58:28;17.50;99.90
7360;DHT22;3720;48.274;7.796;2023-09-30T08:01:00;17.60;99.90
7360;DHT22;3720;48.274;7.796;2023-09-30T08:03:33;17.70;99.90
7360;DHT22;3720;48.274;7.796;2023-09-30T08:06:07;17.80;99.90
7360;DHT22;3720;48.274;7.796;2023-09-30T08:08:39;17.90;99.90
7360;DHT22;3720;48.274;7.796;2023-09-30T08:11:11;18.00;99.90
7360;DHT22;3720;48.274;7.796;2023-09-30T08:13:44;18.10;99.90
7360;DHT22;3720;48.274;7.796;2023-09-30T08:16:16;18.20;99.90
7360;DHT22;3720;48.274;7.796;2023-09-30T08:18:48;18.40;99.90
7360;DHT22;3720;48.274;7.796;2023-09-30T08:21:20;18.50;99.90
7360;DHT22;3720;48.274;7.796;2023-09-30T08:23:52;18.60;99.90
7360;DHT22;3720;48.274;7.796;2023-09-30T08:26:24;18.70;99.90
7360;DHT22;3720;48.274;7.796;2023-09-30T08:28:57;18.80;99.90
7360;DHT22;3720;48.274;7.796;2023-09-30T08:31:30;18.90;99.90
7360;DHT22;3720;48.274;7.796;2023-09-30T08:34:01;19.00;99.90
7360;DHT22;3720;48.274;7.796;2023-09-30T08:36:35;19.10;99.90
7360;DHT22;3720;48.274;7.796;2023-09-30T08:39:06;19.20;99.90
7360;DHT22;3720;48.274;7.796;2023-09-30T08:41:38;19.40;99.90
7360;DHT22;3720;48.274;7.796;2023-09-30T08:44:12;19.50;99.90
7360;DHT22;3720;48.274;7.796;2023-09-30T08:46:44;19.50;99.90
7360;DHT22;3720;48.274;7.796;2023-09-30T08:49:16;19.60;99.90
7360;DHT22;3720;48.274;7.796;2023-09-30T08:51:49;19.70;99.90
7360;DHT22;3720;48.274;7.796;2023-09-30T08:54:22;19.80;99.90
7360;DHT22;3720;48.274;7.796;2023-09-30T08:56:54;19.90;99.90
7360;DHT22;3720;48.274;7.796;2023-09-30T08:59:27;19.90;99.90
7360;DHT22;3720;48.274;7.796;2023-09-30T09:01:59;19.90;99.90
7360;DHT22;3720;48.274;7.796;2023-09-30T09:04:31;20.00;99.90
7360;DHT22;3720;48.274;7.796;2023-09-30T09:07:03;20.10;99.90
7360;DHT22;3720;48.274;7.796;2023-09-30T09:09:36;20.20;99.90
7360;DHT22;3720;48.274;7.796;2023-09-30T09:12:19;20.40;99.90
7360;DHT22;3720;48.274;7.796;2023-09-30T09:14:52;20.50;99.90
7360;DHT22;3720;48.274;7.796;2023-09-30T09:17:24;20.60;99.90
7360;DHT22;3720;48.274;7.796;2023-09-30T09:20:12;20.80;99.90
7360;DHT22;3720;48.274;7.796;2023-09-30T09:22:51;21.00;99.90
7360;DHT22;3720;48.274;7.796;2023-09-30T09:25:24;21.10;99.90
7360;DHT22;3720;48.274;7.796;2023-09-30T09:27:57;21.30;99.90
7360;DHT22;3720;48.274;7.796;2023-09-30T09:30:31;21.50;99.90
7360;DHT22;3720;48.274;7.796;2023-09-30T09:33:04;21.50;99.90
7360;DHT22;3720;48.274;7.796;2023-09-30T09:35:36;21.60;99.90
7360;DHT22;3720;48.274;7.796;2023-09-30T09:38:08;21.80;99.90
7360;DHT22;3720;48.274;7.796;2023-09-30T09:40:40;22.00;99.90
7360;DHT22;3720;48.274;7.796;2023-09-30T09:43:12;22.10;99.90
7360;DHT22;3720;48.274;7.796;2023-09-30T09:45:48;22.30;99.90
7360;DHT22;3720;48.274;7.796;2023-09-30T09:48:20;22.50;99.90
7360;DHT22;3720;48.274;7.796;2023-09-30T09:50:52;22.70;99.90
7360;DHT22;3720;48.274;7.796;2023-09-30T09:53:24;22.90;99.90
7360;DHT22;3720;48.274;7.796;2023-09-30T09:55:59;23.10;99.90
7360;DHT22;3720;48.274;7.796;2023-09-30T09:58:33;23.10;99.90
7360;DHT22;3720;48.274;7.796;2023-09-30T10:01:07;23.20;99.90
7360;DHT22;3720;48.274;7.796;2023-09-30T10:03:40;23.40;99.90
7360;DHT22;3720;48.274;7.796;2023-09-30T10:06:15;23.50;99.90
7360;DHT22;3720;48.274;7.796;2023-09-30T10:08:49;23.90;99.90
7360;DHT22;3720;48.274;7.796;2023-09-30T10:11:23;24.10;99.90
7360;DHT22;3720;48.274;7.796;2023-09-30T10:13:56;24.40;99.90
7360;DHT22;3720;48.274;7.796;2023-09-30T10:16:51;24.70;99.90
7360;DHT22;3720;48.274;7.796;2023-09-30T10:19:23;25.10;99.90
7360;DHT22;3720;48.274;7.796;2023-09-30T10:22:20;25.30;99.90
7360;DHT22;3720;48.274;7.796;2023-09-30T10:24:53;25.50;99.90
7360;DHT22;3720;48.274;7.796;2023-09-30T10:27:31;25.70;99.90
7360;DHT22;3720;48.274;7.796;2023-09-30T10:30:07;25.90;99.90
7360;DHT22;3720;48.274;7.796;2023-09-30T10:33:12;26.20;99.90
7360;DHT22;3720;48.274;7.796;2023-09-30T10:35:46;26.20;99.90
7360;DHT22;3720;48.274;7.796;2023-09-30T10:38:37;26.10;99.90
7360;DHT22;3720;48.274;7.796;2023-09-30T10:44:35;26.50;99.90
7360;DHT22;3720;48.274;7.796;2023-09-30T10:47:36;26.90;99.90
7360;DHT22;3720;48.274;7.796;2023-09-30T10:53:14;27.30;99.90
7360;DHT22;3720;48.274;7.796;2023-09-30T10:55:46;27.50;99.90
7360;DHT22;3720;48.274;7.796;2023-09-30T10:58:18;27.60;99.90
7360;DHT22;3720;48.274;7.796;2023-09-30T11:00:54;27.80;99.90
7360;DHT22;3720;48.274;7.796;2023-09-30T11:03:26;28.00;99.90
7360;DHT22;3720;48.274;7.796;2023-09-30T11:05:58;28.20;99.90
7360;DHT22;3720;48.274;7.796;2023-09-30T11:08:32;28.30;99.90
7360;DHT22;3720;48.274;7.796;2023-09-30T11:11:05;28.40;99.90
7360;DHT22;3720;48.274;7.796;2023-09-30T11:13:37;28.40;99.90
7360;DHT22;3720;48.274;7.796;2023-09-30T11:16:09;28.30;99.90
7360;DHT22;3720;48.274;7.796;2023-09-30T11:18:41;28.30;99.90
7360;DHT22;3720;48.274;7.796;2023-09-30T11:21:13;28.50;99.90
7360;DHT22;3720;48.274;7.796;2023-09-30T11:23:47;28.60;99.90
7360;DHT22;3720;48.274;7.796;2023-09-30T11:26:29;28.80;99.90
7360;DHT22;3720;48.274;7.796;2023-09-30T11:29:05;28.80;99.90
7360;DHT22;3720;48.274;7.796;2023-09-30T11:31:38;29.00;99.90
7360;DHT22;3720;48.274;7.796;2023-09-30T11:34:10;29.20;99.90
7360;DHT22;3720;48.274;7.796;2023-09-30T11:36:48;29.30;99.90
7360;DHT22;3720;48.274;7.796;2023-09-30T11:39:26;29.40;99.90
7360;DHT22;3720;48.274;7.796;2023-09-30T11:41:58;29.40;99.90
7360;DHT22;3720;48.274;7.796;2023-09-30T11:44:31;29.50;99.60
7360;DHT22;3720;48.274;7.796;2023-09-30T11:47:03;29.70;99.00
7360;DHT22;3720;48.274;7.796;2023-09-30T11:49:39;29.90;99.00
7360;DHT22;3720;48.274;7.796;2023-09-30T11:52:13;30.00;99.40
7360;DHT22;3720;48.274;7.796;2023-09-30T11:54:47;30.00;98.60
7360;DHT22;3720;48.274;7.796;2023-09-30T11:57:18;30.00;98.30
7360;DHT22;3720;48.274;7.796;2023-09-30T11:59:50;30.00;97.20
7360;DHT22;3720;48.274;7.796;2023-09-30T12:02:22;30.00;96.10
7360;DHT22;3720;48.274;7.796;2023-09-30T12:04:54;29.90;95.20
7360;DHT22;3720;48.274;7.796;2023-09-30T12:07:26;29.60;95.60
7360;DHT22;3720;48.274;7.796;2023-09-30T12:09:59;29.10;95.30
7360;DHT22;3720;48.274;7.796;2023-09-30T12:12:32;28.50;95.80
7360;DHT22;3720;48.274;7.796;2023-09-30T12:15:05;28.10;96.20
7360;DHT22;3720;48.274;7.796;2023-09-30T12:17:37;27.90;96.60
7360;DHT22;3720;48.274;7.796;2023-09-30T12:20:10;27.90;98.20
7360;DHT22;3720;48.274;7.796;2023-09-30T12:22:45;28.10;96.60
7360;DHT22;3720;48.274;7.796;2023-09-30T12:25:18;28.40;96.50
7360;DHT22;3720;48.274;7.796;2023-09-30T12:27:52;28.90;96.60
7360;DHT22;3720;48.274;7.796;2023-09-30T12:30:25;29.30;95.60
7360;DHT22;3720;48.274;7.796;2023-09-30T12:32:57;29.70;95.50
7360;DHT22;3720;48.274;7.796;2023-09-30T12:35:29;29.90;95.00
7360;DHT22;3720;48.274;7.796;2023-09-30T12:38:01;29.80;94.90
7360;DHT22;3720;48.274;7.796;2023-09-30T12:40:34;29.60;93.50
7360;DHT22;3720;48.274;7.796;2023-09-30T12:43:06;29.40;94.80
7360;DHT22;3720;48.274;7.796;2023-09-30T12:45:38;29.60;93.70
7360;DHT22;3720;48.274;7.796;2023-09-30T12:48:10;29.80;94.10
7360;DHT22;3720;48.274;7.796;2023-09-30T12:50:42;30.00;93.30
7360;DHT22;3720;48.274;7.796;2023-09-30T12:53:14;30.30;92.40
7360;DHT22;3720;48.274;7.796;2023-09-30T12:55:47;30.40;91.40
7360;DHT22;3720;48.274;7.796;2023-09-30T12:58:19;30.20;82.50
7360;DHT22;3720;48.274;7.796;2023-09-30T13:00:51;29.90;88.50
7360;DHT22;3720;48.274;7.796;2023-09-30T13:03:23;29.80;87.30
7360;DHT22;3720;48.274;7.796;2023-09-30T13:05:55;29.60;88.00
7360;DHT22;3720;48.274;7.796;2023-09-30T13:08:27;29.50;83.90
7360;DHT22;3720;48.274;7.796;2023-09-30T13:11:05;29.30;87.60
7360;DHT22;3720;48.274;7.796;2023-09-30T13:13:37;29.20;88.20
7360;DHT22;3720;48.274;7.796;2023-09-30T13:16:11;29.00;90.10
7360;DHT22;3720;48.274;7.796;2023-09-30T13:18:43;29.10;91.00
7360;DHT22;3720;48.274;7.796;2023-09-30T13:21:15;29.00;91.00
7360;DHT22;3720;48.274;7.796;2023-09-30T13:23:47;29.00;90.60
7360;DHT22;3720;48.274;7.796;2023-09-30T13:26:20;29.10;89.60
7360;DHT22;3720;48.274;7.796;2023-09-30T13:28:52;29.10;89.90
7360;DHT22;3720;48.274;7.796;2023-09-30T13:31:24;29.10;89.20
7360;DHT22;3720;48.274;7.796;2023-09-30T13:33:56;28.90;89.80
7360;DHT22;3720;48.274;7.796;2023-09-30T13:36:28;28.60;91.70
7360;DHT22;3720;48.274;7.796;2023-09-30T13:39:00;28.50;92.00
7360;DHT22;3720;48.274;7.796;2023-09-30T13:41:38;28.30;91.90
7360;DHT22;3720;48.274;7.796;2023-09-30T13:44:10;28.10;91.90
7360;DHT22;3720;48.274;7.796;2023-09-30T13:46:42;28.00;92.40
7360;DHT22;3720;48.274;7.796;2023-09-30T13:49:14;28.00;92.30
7360;DHT22;3720;48.274;7.796;2023-09-30T13:51:45;28.00;91.90
7360;DHT22;3720;48.274;7.796;2023-09-30T13:54:17;28.10;91.20
7360;DHT22;3720;48.274;7.796;2023-09-30T13:56:51;28.20;92.00
7360;DHT22;3720;48.274;7.796;2023-09-30T13:59:22;28.20;91.90
7360;DHT22;3720;48.274;7.796;2023-09-30T14:01:54;28.30;92.10
7360;DHT22;3720;48.274;7.796;2023-09-30T14:04:26;28.40;91.00
7360;DHT22;3720;48.274;7.796;2023-09-30T14:06:58;28.50;90.40
7360;DHT22;3720;48.274;7.796;2023-09-30T14:09:30;28.60;92.00
7360;DHT22;3720;48.274;7.796;2023-09-30T14:12:05;28.60;92.00
7360;DHT22;3720;48.274;7.796;2023-09-30T14:14:38;28.70;92.00
7360;DHT22;3720;48.274;7.796;2023-09-30T14:17:09;28.80;91.90
7360;DHT22;3720;48.274;7.796;2023-09-30T14:19:42;28.80;91.70
7360;DHT22;3720;48.274;7.796;2023-09-30T14:22:14;28.90;91.50
7360;DHT22;3720;48.274;7.796;2023-09-30T14:24:46;29.00;90.90
7360;DHT22;3720;48.274;7.796;2023-09-30T14:27:19;29.20;90.70
7360;DHT22;3720;48.274;7.796;2023-09-30T14:29:51;29.10;90.70
7360;DHT22;3720;48.274;7.796;2023-09-30T14:32:24;29.10;90.70
7360;DHT22;3720;48.274;7.796;2023-09-30T14:34:56;29.10;90.10
7360;DHT22;3720;48.274;7.796;2023-09-30T14:37:28;29.10;90.80
7360;DHT22;3720;48.274;7.796;2023-09-30T14:40:00;29.10;91.30
7360;DHT22;3720;48.274;7.796;2023-09-30T14:42:37;29.00;90.80
7360;DHT22;3720;48.274;7.796;2023-09-30T14:45:09;28.90;91.00
7360;DHT22;3720;48.274;7.796;2023-09-30T14:47:41;28.90;90.90
7360;DHT22;3720;48.274;7.796;2023-09-30T14:50:13;28.90;90.70
7360;DHT22;3720;48.274;7.796;2023-09-30T14:52:46;29.00;90.70
7360;DHT22;3720;48.274;7.796;2023-09-30T14:55:18;29.00;91.00
7360;DHT22;3720;48.274;7.796;2023-09-30T14:57:52;29.00;90.20
7360;DHT22;3720;48.274;7.796;2023-09-30T15:00:24;28.90;90.10
7360;DHT22;3720;48.274;7.796;2023-09-30T15:02:57;28.60;90.80
7360;DHT22;3720;48.274;7.796;2023-09-30T15:05:29;28.50;91.30
7360;DHT22;3720;48.274;7.796;2023-09-30T15:08:01;28.40;91.50
7360;DHT22;3720;48.274;7.796;2023-09-30T15:10:34;28.50;91.10
7360;DHT22;3720;48.274;7.796;2023-09-30T15:13:07;28.40;91.00
7360;DHT22;3720;48.274;7.796;2023-09-30T15:15:40;28.30;91.50
7360;DHT22;3720;48.274;7.796;2023-09-30T15:18:11;28.30;91.10
7360;DHT22;3720;48.274;7.796;2023-09-30T15:20:43;28.20;90.30
7360;DHT22;3720;48.274;7.796;2023-09-30T15:23:17;28.10;90.40
7360;DHT22;3720;48.274;7.796;2023-09-30T15:25:49;28.00;90.50
7360;DHT22;3720;48.274;7.796;2023-09-30T15:28:22;27.90;90.10
7360;DHT22;3720;48.274;7.796;2023-09-30T15:30:54;27.80;90.90
7360;DHT22;3720;48.274;7.796;2023-09-30T15:33:28;27.70;90.70
7360;DHT22;3720;48.274;7.796;2023-09-30T15:36:08;27.60;91.20
7360;DHT22;3720;48.274;7.796;2023-09-30T15:38:40;27.60;91.80
7360;DHT22;3720;48.274;7.796;2023-09-30T15:41:13;27.60;92.70
7360;DHT22;3720;48.274;7.796;2023-09-30T15:43:46;27.60;92.90
7360;DHT22;3720;48.274;7.796;2023-09-30T15:46:18;27.50;92.50
7360;DHT22;3720;48.274;7.796;2023-09-30T15:48:50;27.50;92.30
7360;DHT22;3720;48.274;7.796;2023-09-30T15:51:22;27.30;92.20
7360;DHT22;3720;48.274;7.796;2023-09-30T15:53:54;27.20;92.60
7360;DHT22;3720;48.274;7.796;2023-09-30T15:56:26;27.10;92.10
7360;DHT22;3720;48.274;7.796;2023-09-30T15:58:59;27.00;92.50
7360;DHT22;3720;48.274;7.796;2023-09-30T16:01:31;26.80;92.40
7360;DHT22;3720;48.274;7.796;2023-09-30T16:04:04;26.70;92.80
7360;DHT22;3720;48.274;7.796;2023-09-30T16:06:39;26.60;92.50
7360;DHT22;3720;48.274;7.796;2023-09-30T16:09:10;26.40;93.40
7360;DHT22;3720;48.274;7.796;2023-09-30T16:11:42;26.30;93.10
7360;DHT22;3720;48.274;7.796;2023-09-30T16:14:15;26.10;93.80
7360;DHT22;3720;48.274;7.796;2023-09-30T16:16:47;26.00;93.80
7360;DHT22;3720;48.274;7.796;2023-09-30T16:19:19;25.90;94.00
7360;DHT22;3720;48.274;7.796;2023-09-30T16:21:51;25.70;95.10
7360;DHT22;3720;48.274;7.796;2023-09-30T16:24:23;25.50;96.30
7360;DHT22;3720;48.274;7.796;2023-09-30T16:26:54;25.40;96.10
7360;DHT22;3720;48.274;7.796;2023-09-30T16:29:28;25.20;96.20
7360;DHT22;3720;48.274;7.796;2023-09-30T16:32:00;25.00;96.60
7360;DHT22;3720;48.274;7.796;2023-09-30T16:34:32;24.90;97.60
7360;DHT22;3720;48.274;7.796;2023-09-30T16:37:04;24.60;97.60
7360;DHT22;3720;48.274;7.796;2023-09-30T16:39:36;24.40;98.30
7360;DHT22;3720;48.274;7.796;2023-09-30T16:42:07;24.20;99.20
7360;DHT22;3720;48.274;7.796;2023-09-30T16:44:41;24.00;99.80